Time;durP1;ratioP1;P1;durP2;ratioP2;P2;SDS_P1;SDS_P2;PMS_P1;PMS_P2;Temp;Humidity;BMP_temperature;BMP_pressure;BME280_temperature;BME280_humidity;BME280_pressure;Samples;Min_cycle;Max_cycle;Signal;HPM_P1;HPM_P2
2021/12/24 00:00:30;;;;;;;18.77;2.30;;;7.80;99.90;;;;;;4977159;28;20514;-92
2021/12/24 00:02:56;;;;;;;16.33;3.03;;;7.80;99.90;;;;;;4977594;28;20105;-91
2021/12/24 00:05:22;;;;;;;11.65;1.60;;;7.80;99.90;;;;;;4977467;28;20026;-91
2021/12/24 00:07:48;;;;;;;15.98;4.38;;;7.80;99.90;;;;;;4977152;28;20026;-91
2021/12/24 00:10:14;;;;;;;15.77;2.40;;;7.80;99.90;;;;;;4976804;28;20488;-92
2021/12/24 00:12:46;;;;;;;18.85;2.92;;;7.80;99.90;;;;;;4977305;28;20038;-91
2021/12/24 00:16:06;;;;;;;25.92;3.47;;;7.80;99.90;;;;;;4977133;28;20023;-91
2021/12/24 00:18:47;;;;;;;19.63;2.65;;;7.80;99.90;;;;;;4980627;28;20034;-92
2021/12/24 00:21:56;;;;;;;18.85;2.35;;;7.80;99.90;;;;;;4982630;28;20424;-91
2021/12/24 00:37:16;;;;;;;14.65;2.65;;;7.80;99.90;;;;;;4993962;28;20121;-92
2021/12/24 00:39:51;;;;;;;14.10;2.55;;;7.80;99.90;;;;;;4976102;28;20035;-91
2021/12/24 00:42:17;;;;;;;18.08;2.30;;;7.90;99.90;;;;;;4976515;28;20503;-91
2021/12/24 00:44:43;;;;;;;17.05;2.33;;;7.90;99.90;;;;;;4976226;28;20129;-91
2021/12/24 00:47:08;;;;;;;27.48;2.90;;;7.90;99.90;;;;;;4976693;28;20061;-91
2021/12/24 00:49:34;;;;;;;12.40;1.80;;;7.90;99.90;;;;;;4976231;28;20026;-91
2021/12/24 00:55:06;;;;;;;19.95;3.10;;;7.90;99.90;;;;;;4963368;28;20031;-91
2021/12/24 00:57:35;;;;;;;16.95;2.20;;;7.90;99.90;;;;;;4976301;28;20026;-91
2021/12/24 01:00:25;;;;;;;15.15;2.20;;;7.80;99.90;;;;;;4976254;28;20037;-90
2021/12/24 01:02:52;;;;;;;20.85;3.13;;;7.90;99.90;;;;;;4976296;28;20035;-90
2021/12/24 01:05:22;;;;;;;17.70;2.60;;;7.90;99.90;;;;;;4975822;28;20503;-91
2021/12/24 01:07:49;;;;;;;15.30;3.00;;;7.90;99.90;;;;;;4975779;28;20027;-91
2021/12/24 01:10:26;;;;;;;20.85;3.03;;;7.80;99.90;;;;;;4975788;28;20054;-91
2021/12/24 01:12:52;;;;;;;14.02;2.35;;;7.90;99.90;;;;;;4975911;28;20026;-92
2021/12/24 01:15:18;;;;;;;21.42;2.65;;;7.90;99.90;;;;;;4976105;28;20467;-91
2021/12/24 01:17:54;;;;;;;25.40;2.47;;;7.90;99.90;;;;;;4975561;28;20040;-91
2021/12/24 01:21:07;;;;;;;15.82;3.10;;;7.90;99.90;;;;;;4975843;28;20019;-91
2021/12/24 01:39:27;;;;;;;17.13;2.35;;;7.90;99.90;;;;;;4994002;28;20626;-92
2021/12/24 01:44:38;;;;;;;17.38;2.42;;;7.90;99.90;;;;;;4993595;28;20080;-90
2021/12/24 01:47:07;;;;;;;18.00;2.47;;;7.90;99.90;;;;;;4975760;28;20033;-90
2021/12/24 01:49:33;;;;;;;18.58;2.53;;;7.90;99.90;;;;;;4978962;28;20038;-91
2021/12/24 01:52:02;;;;;;;18.98;2.60;;;7.90;99.90;;;;;;4989299;28;20058;-91
2021/12/24 01:54:28;;;;;;;20.98;3.58;;;7.90;99.90;;;;;;4990287;28;20039;-90
2021/12/24 01:56:54;;;;;;;21.02;2.35;;;7.90;99.90;;;;;;4980925;28;20086;-91
2021/12/24 01:59:19;;;;;;;13.52;2.55;;;7.90;99.90;;;;;;4981398;28;20102;-92
2021/12/24 02:01:45;;;;;;;24.48;2.67;;;7.90;99.90;;;;;;4982373;28;20030;-93
2021/12/24 02:04:13;;;;;;;21.77;2.50;;;7.90;99.90;;;;;;4985802;28;20061;-92
2021/12/24 02:06:40;;;;;;;16.00;1.85;;;7.90;99.90;;;;;;4995084;28;20038;-92
2021/12/24 02:09:06;;;;;;;14.77;2.38;;;7.90;99.90;;;;;;4993649;28;20038;-92
2021/12/24 02:11:38;;;;;;;12.65;2.20;;;7.90;99.90;;;;;;4988748;28;20113;-92
2021/12/24 02:14:09;;;;;;;22.67;2.67;;;7.90;99.90;;;;;;4988851;28;20061;-92
2021/12/24 02:29:55;;;;;;;16.98;4.13;;;7.90;99.90;;;;;;4997108;28;20116;-92
2021/12/24 02:32:21;;;;;;;15.73;3.60;;;8.00;99.90;;;;;;4979101;28;20487;-93
2021/12/24 02:34:47;;;;;;;12.60;4.60;;;8.00;99.90;;;;;;4979646;28;20022;-94
2021/12/24 02:37:13;;;;;;;23.73;3.97;;;8.00;99.90;;;;;;4978950;28;20034;-93
2021/12/24 02:39:39;;;;;;;16.90;3.75;;;8.00;99.90;;;;;;4978762;28;20084;-92
2021/12/24 02:42:17;;;;;;;22.77;4.40;;;8.00;99.90;;;;;;4978880;28;20030;-92
2021/12/24 02:44:45;;;;;;;21.95;4.38;;;8.00;99.90;;;;;;4984163;28;20060;-93
2021/12/24 02:55:03;;;;;;;8.75;2.90;;;8.00;99.90;;;;;;4992017;28;20123;-92
2021/12/24 02:57:30;;;;;;;15.52;2.63;;;7.90;99.90;;;;;;4978213;28;20028;-92
2021/12/24 03:00:07;;;;;;;17.95;3.03;;;7.90;99.90;;;;;;4978348;28;20389;-94
2021/12/24 03:02:34;;;;;;;20.25;3.35;;;7.90;99.90;;;;;;4980445;28;20026;-91
2021/12/24 03:05:01;;;;;;;9.30;2.80;;;7.90;99.90;;;;;;4966950;28;20117;-92
2021/12/24 03:07:27;;;;;;;15.75;2.88;;;7.90;99.90;;;;;;4960375;28;20027;-92
2021/12/24 03:09:53;;;;;;;17.45;3.30;;;7.90;99.90;;;;;;4960458;28;20035;-92
2021/12/24 03:12:19;;;;;;;10.85;2.70;;;7.90;99.90;;;;;;4961283;28;20029;-92
2021/12/24 03:14:44;;;;;;;11.20;3.00;;;7.90;99.90;;;;;;4961411;28;20038;-92
2021/12/24 03:17:15;;;;;;;21.88;3.42;;;7.90;99.90;;;;;;4960483;28;20026;-92
2021/12/24 03:19:41;;;;;;;;;;;7.90;99.90;;;;;;4960861;28;20027;-90
2021/12/24 03:22:33;;;;;;;18.08;2.95;;;7.90;99.90;;;;;;4976265;28;20020;-93
2021/12/24 03:24:59;;;;;;;14.55;3.15;;;7.90;99.90;;;;;;4977630;28;20026;-93
2021/12/24 03:27:25;;;;;;;17.30;3.58;;;7.90;99.90;;;;;;4960062;28;20033;-93
2021/12/24 03:29:52;;;;;;;14.30;2.75;;;7.90;99.90;;;;;;4960066;28;20022;-92
2021/12/24 03:32:18;;;;;;;11.75;2.70;;;7.90;99.90;;;;;;4960511;28;20172;-92
2021/12/24 03:34:44;;;;;;;16.55;3.53;;;7.90;99.90;;;;;;4959635;28;20035;-93
2021/12/24 03:37:10;;;;;;;14.95;4.07;;;7.90;99.90;;;;;;4959414;28;20031;-93
2021/12/24 03:39:36;;;;;;;23.48;4.82;;;7.90;99.90;;;;;;4959471;28;20062;-93
2021/12/24 03:42:04;;;;;;;19.27;3.00;;;7.90;99.90;;;;;;4959255;28;20022;-92
2021/12/24 03:44:38;;;;;;;16.38;3.13;;;7.90;99.90;;;;;;4975166;28;20065;-92
2021/12/24 03:47:10;;;;;;;20.75;3.08;;;7.90;99.90;;;;;;4959379;28;20051;-94
2021/12/24 03:49:45;;;;;;;11.80;3.38;;;7.80;99.90;;;;;;4960964;28;20507;-92
2021/12/24 03:52:39;;;;;;;17.85;3.25;;;7.80;99.90;;;;;;4963370;28;20019;-92
2021/12/24 03:55:05;;;;;;;17.35;4.15;;;7.80;99.90;;;;;;4959712;28;20105;-92
2021/12/24 03:57:40;;;;;;;17.13;4.10;;;7.80;99.90;;;;;;4959799;28;20023;-93
2021/12/24 04:00:15;;;;;;;22.58;4.55;;;7.90;99.90;;;;;;4959710;28;20022;-92
2021/12/24 04:02:41;;;;;;;24.13;5.72;;;7.90;99.90;;;;;;4971966;28;20113;-93
2021/12/24 04:05:08;;;;;;;11.88;3.80;;;7.80;99.90;;;;;;4981575;28;20030;-93
2021/12/24 04:07:34;;;;;;;16.83;3.90;;;7.90;99.90;;;;;;4999910;28;20022;-92
2021/12/24 04:10:07;;;;;;;12.02;3.38;;;7.90;99.90;;;;;;4982238;28;20053;-92
2021/12/24 04:12:34;;;;;;;16.13;3.58;;;7.90;99.90;;;;;;4982603;28;20077;-92
2021/12/24 04:15:01;;;;;;;20.45;3.47;;;7.90;99.90;;;;;;4997972;28;20026;-91
2021/12/24 04:17:31;;;;;;;16.08;3.65;;;7.90;99.90;;;;;;4995360;28;20387;-92
2021/12/24 04:25:22;;;;;;;17.00;4.40;;;7.80;99.90;;;;;;5000705;28;19965;-93
2021/12/24 04:27:49;;;;;;;11.93;4.07;;;7.80;99.90;;;;;;4996687;28;20042;-93
2021/12/24 04:30:20;;;;;;;9.43;4.00;;;7.80;99.90;;;;;;4995257;28;20026;-93
2021/12/24 04:33:01;;;;;;;19.30;4.35;;;7.80;99.90;;;;;;4982309;28;20125;-92
2021/12/24 04:51:27;;;;;;;16.58;5.47;;;7.80;99.90;;;;;;4995622;28;20084;-93
2021/12/24 05:05:01;;;;;;;14.32;5.95;;;7.80;99.90;;;;;;4995118;28;20026;-93
2021/12/24 05:10:11;;;;;;;10.85;5.18;;;7.80;99.90;;;;;;4994599;28;20041;-92
2021/12/24 05:12:37;;;;;;;9.68;5.30;;;7.80;99.90;;;;;;4977127;28;20026;-93
2021/12/24 05:15:04;;;;;;;12.73;5.07;;;7.80;99.90;;;;;;4977455;28;20388;-93
2021/12/24 05:17:49;;;;;;;16.33;5.78;;;7.80;99.90;;;;;;4977469;28;20530;-92
2021/12/24 05:22:59;;;;;;;12.50;6.30;;;7.80;99.90;;;;;;4994923;28;20060;-92
2021/12/24 05:25:25;;;;;;;15.98;6.68;;;7.80;99.90;;;;;;4979131;28;20113;-92
2021/12/24 05:27:55;;;;;;;8.85;5.60;;;7.80;99.90;;;;;;4978021;28;20026;-93
2021/12/24 05:30:23;;;;;;;11.43;6.57;;;7.80;99.90;;;;;;4983136;28;20026;-93
2021/12/24 05:32:48;;;;;;;11.23;5.60;;;7.80;99.90;;;;;;4991534;28;20038;-92
2021/12/24 05:35:14;;;;;;;13.65;5.68;;;7.70;99.90;;;;;;4996817;28;20030;-93
2021/12/24 05:37:40;;;;;;;13.73;6.10;;;7.70;99.90;;;;;;4993652;28;20036;-91
2021/12/24 05:40:07;;;;;;;11.63;6.32;;;7.70;99.90;;;;;;4991238;28;20034;-92
2021/12/24 05:42:33;;;;;;;12.65;5.22;;;7.70;99.90;;;;;;4989323;28;20035;-92
2021/12/24 05:45:05;;;;;;;15.32;6.80;;;7.70;99.90;;;;;;4986201;28;20053;-92
2021/12/24 05:47:32;;;;;;;12.52;5.97;;;7.60;99.90;;;;;;4981773;28;20126;-92
2021/12/24 05:49:58;;;;;;;13.00;6.07;;;7.60;99.90;;;;;;4981780;28;20062;-93
2021/12/24 05:52:24;;;;;;;10.85;5.25;;;7.60;99.90;;;;;;4981194;28;20038;-92
2021/12/24 05:54:50;;;;;;;11.45;5.82;;;7.60;99.90;;;;;;4981230;28;20365;-91
2021/12/24 05:57:17;;;;;;;14.02;6.32;;;7.50;99.90;;;;;;4997935;28;20041;-91
2021/12/24 05:59:42;;;;;;;12.13;5.53;;;7.50;99.90;;;;;;4980926;28;20030;-93
2021/12/24 06:02:08;;;;;;;8.68;4.80;;;7.50;99.90;;;;;;4981459;28;20026;-91
2021/12/24 06:04:34;;;;;;;9.95;4.57;;;7.40;99.90;;;;;;4981361;28;20037;-92
2021/12/24 06:07:00;;;;;;;11.88;4.43;;;7.50;99.90;;;;;;4980426;28;20454;-91
2021/12/24 06:09:26;;;;;;;9.93;4.80;;;7.40;99.90;;;;;;4980288;28;20026;-91
2021/12/24 06:11:52;;;;;;;13.60;4.28;;;7.40;99.90;;;;;;4980317;28;20380;-91
2021/12/24 06:14:18;;;;;;;9.88;4.65;;;7.40;99.90;;;;;;4996511;28;20038;-92
2021/12/24 06:17:04;;;;;;;14.38;4.30;;;7.40;99.90;;;;;;4980544;28;20066;-93
2021/12/24 06:19:30;;;;;;;10.25;3.78;;;7.40;99.90;;;;;;4980456;28;20034;-92
2021/12/24 06:21:57;;;;;;;9.82;3.40;;;7.40;99.90;;;;;;4979907;28;20046;-92
2021/12/24 06:24:23;;;;;;;7.60;3.50;;;7.40;99.90;;;;;;4979631;28;20042;-92
2021/12/24 06:26:50;;;;;;;8.73;5.57;;;7.30;99.90;;;;;;4980512;28;20062;-93
2021/12/24 06:29:17;;;;;;;7.30;3.47;;;7.30;99.90;;;;;;4980281;28;20054;-91
2021/12/24 06:31:43;;;;;;;9.02;3.67;;;7.30;99.90;;;;;;4979975;28;20026;-91
2021/12/24 06:34:08;;;;;;;5.80;3.17;;;7.30;99.90;;;;;;4980376;28;20113;-92
2021/12/24 06:36:37;;;;;;;10.50;3.80;;;7.20;99.90;;;;;;4980827;28;20057;-92
2021/12/24 06:39:06;;;;;;;5.55;3.15;;;7.20;99.90;;;;;;4980169;28;20026;-92
2021/12/24 06:41:33;;;;;;;7.47;3.38;;;7.10;99.90;;;;;;4979732;28;20472;-92
2021/12/24 06:43:59;;;;;;;8.93;4.05;;;7.10;99.90;;;;;;4979877;28;20100;-92
2021/12/24 06:46:26;;;;;;;13.40;3.95;;;7.10;99.90;;;;;;4979821;28;20043;-92
2021/12/24 06:48:56;;;;;;;8.13;5.05;;;7.00;99.90;;;;;;4980341;28;20034;-91
2021/12/24 06:51:25;;;;;;;15.85;5.70;;;7.00;99.90;;;;;;4980186;28;20064;-92
2021/12/24 06:53:53;;;;;;;8.52;3.08;;;6.90;99.90;;;;;;4979984;28;20504;-92
2021/12/24 06:56:19;;;;;;;7.60;3.15;;;6.80;99.90;;;;;;4980145;28;20030;-93
2021/12/24 06:58:45;;;;;;;7.68;3.03;;;6.80;99.90;;;;;;4980241;28;20510;-92
2021/12/24 07:01:11;;;;;;;6.40;2.85;;;6.80;99.90;;;;;;4980224;28;20534;-92
2021/12/24 07:03:37;;;;;;;7.03;3.08;;;6.70;99.90;;;;;;4979668;28;20042;-92
2021/12/24 07:06:04;;;;;;;12.13;3.13;;;6.70;99.90;;;;;;4979760;28;20069;-93
2021/12/24 07:08:30;;;;;;;7.28;3.10;;;6.60;99.90;;;;;;4979932;28;20026;-92
2021/12/24 07:10:55;;;;;;;8.13;3.03;;;6.60;99.90;;;;;;4979681;28;20030;-92
2021/12/24 07:13:21;;;;;;;7.15;2.97;;;6.60;99.90;;;;;;4979641;28;20092;-92
2021/12/24 07:15:47;;;;;;;8.25;2.85;;;6.50;99.90;;;;;;4979453;28;20037;-93
2021/12/24 07:18:13;;;;;;;5.00;3.10;;;6.50;99.90;;;;;;4980010;28;20045;-91
2021/12/24 07:20:39;;;;;;;7.65;3.00;;;6.50;99.90;;;;;;4982063;28;20031;-91
2021/12/24 07:23:04;;;;;;;9.10;3.20;;;6.50;99.90;;;;;;4985781;28;20034;-91
2021/12/24 07:25:30;;;;;;;9.23;3.60;;;6.50;99.90;;;;;;4979908;28;20100;-91
2021/12/24 07:27:56;;;;;;;7.60;3.45;;;6.60;99.90;;;;;;4978630;28;20033;-93
2021/12/24 07:30:22;;;;;;;9.05;3.60;;;6.60;99.90;;;;;;4982220;28;20033;-93
2021/12/24 07:32:48;;;;;;;9.48;4.00;;;6.60;99.90;;;;;;4983256;28;20069;-93
2021/12/24 07:35:15;;;;;;;7.53;3.72;;;6.70;99.90;;;;;;4978855;28;20464;-94
2021/12/24 07:37:42;;;;;;;7.45;3.25;;;6.70;99.90;;;;;;4987481;28;20018;-92
2021/12/24 07:40:09;;;;;;;15.35;4.10;;;6.70;99.90;;;;;;4978601;28;20368;-93
2021/12/24 07:42:36;;;;;;;14.43;4.57;;;6.70;99.90;;;;;;4978503;28;20042;-93
2021/12/24 07:45:03;;;;;;;15.43;4.20;;;6.70;99.90;;;;;;4978401;28;20030;-92
2021/12/24 07:47:33;;;;;;;12.32;4.15;;;6.70;99.90;;;;;;4997867;28;20737;-93
2021/12/24 07:50:02;;;;;;;12.00;4.35;;;6.80;99.90;;;;;;4997582;28;20495;-92
2021/12/24 07:52:28;;;;;;;10.30;3.35;;;6.70;99.90;;;;;;4996443;28;20018;-92
2021/12/24 07:54:57;;;;;;;6.38;2.95;;;6.80;99.90;;;;;;4996682;28;20060;-93
2021/12/24 07:57:24;;;;;;;16.92;3.92;;;6.80;99.90;;;;;;4996876;28;20026;-92
2021/12/24 07:59:51;;;;;;;9.20;3.28;;;6.80;99.90;;;;;;4996594;28;20034;-92
2021/12/24 08:02:22;;;;;;;7.15;3.08;;;6.80;99.90;;;;;;4996705;28;20061;-92
2021/12/24 08:04:48;;;;;;;14.73;5.10;;;6.80;99.90;;;;;;4996948;28;20022;-92
2021/12/24 08:07:20;;;;;;;10.30;4.35;;;6.80;99.90;;;;;;4996825;28;20026;-93
2021/12/24 08:09:49;;;;;;;14.27;4.25;;;6.80;99.90;;;;;;4997398;28;20053;-92
2021/12/24 08:12:15;;;;;;;13.77;4.82;;;6.80;99.90;;;;;;4998168;28;20022;-94
2021/12/24 08:14:41;;;;;;;10.95;4.45;;;6.80;99.90;;;;;;4999045;28;20030;-93
2021/12/24 08:17:08;;;;;;;22.38;7.22;;;6.80;99.90;;;;;;4998759;28;20467;-93
2021/12/24 08:19:34;;;;;;;23.75;8.00;;;6.80;99.90;;;;;;5001221;28;20026;-91
2021/12/24 08:22:00;;;;;;;9.15;4.25;;;6.80;99.90;;;;;;4999409;28;20494;-91
2021/12/24 08:24:26;;;;;;;16.23;5.20;;;6.80;99.90;;;;;;4996756;28;20033;-91
2021/12/24 08:26:52;;;;;;;12.30;4.88;;;6.80;99.90;;;;;;4996595;28;20025;-93
2021/12/24 08:29:19;;;;;;;17.73;5.88;;;6.70;99.90;;;;;;4996030;28;20493;-92
2021/12/24 08:31:44;;;;;;;11.38;4.85;;;6.70;99.90;;;;;;4996195;28;20025;-91
2021/12/24 08:34:11;;;;;;;8.57;4.10;;;6.80;99.90;;;;;;4996280;28;20036;-92
2021/12/24 08:36:37;;;;;;;6.20;3.40;;;6.80;99.90;;;;;;4996705;28;20085;-91
2021/12/24 08:39:04;;;;;;;7.47;3.22;;;6.80;99.90;;;;;;4996981;28;20085;-92
2021/12/24 08:41:30;;;;;;;11.38;3.10;;;6.80;99.90;;;;;;4997263;28;20022;-91
2021/12/24 08:43:56;;;;;;;12.00;3.50;;;6.80;99.90;;;;;;4997891;28;20030;-90
2021/12/24 08:46:22;;;;;;;7.47;3.20;;;6.80;99.90;;;;;;4997970;28;20048;-93
2021/12/24 08:48:48;;;;;;;15.55;3.90;;;6.80;99.90;;;;;;4997089;28;20030;-92
2021/12/24 08:51:13;;;;;;;8.30;3.70;;;6.80;99.90;;;;;;5003073;28;20022;-93
2021/12/24 08:53:40;;;;;;;14.45;5.07;;;6.90;99.90;;;;;;5006553;28;20042;-93
2021/12/24 08:56:06;;;;;;;14.88;6.07;;;6.90;99.90;;;;;;5008907;28;20068;-92
2021/12/24 08:58:37;;;;;;;15.98;6.82;;;6.90;99.90;;;;;;5011624;28;20041;-92
2021/12/24 09:01:03;;;;;;;;;;;6.90;99.90;;;;;;5005505;28;20018;-94
2021/12/24 09:03:28;;;;;;;9.55;4.10;;;6.90;99.90;;;;;;5001992;28;19928;-92
2021/12/24 09:05:54;;;;;;;15.23;5.55;;;6.90;99.90;;;;;;4999947;28;20438;-92
2021/12/24 09:08:20;;;;;;;7.82;4.57;;;6.90;99.90;;;;;;4995903;28;20030;-94
2021/12/24 09:10:46;;;;;;;10.63;4.85;;;6.90;99.90;;;;;;4997089;28;20422;-92
2021/12/24 09:13:12;;;;;;;26.77;8.82;;;6.90;99.90;;;;;;4996726;28;20033;-91
2021/12/24 09:15:39;;;;;;;19.42;6.75;;;7.00;99.90;;;;;;4991360;28;20084;-91
2021/12/24 09:18:05;;;;;;;12.52;4.28;;;7.00;99.90;;;;;;4995406;28;20018;-90
2021/12/24 09:20:38;;;;;;;7.63;3.95;;;7.00;99.90;;;;;;4995779;28;20036;-91
2021/12/24 09:23:06;;;;;;;15.52;5.68;;;7.00;99.90;;;;;;4996271;28;20045;-91
2021/12/24 09:25:32;;;;;;;15.52;5.82;;;7.10;99.90;;;;;;5009327;28;20022;-91
2021/12/24 09:27:59;;;;;;;18.90;7.90;;;7.10;99.90;;;;;;4996010;28;20049;-92
2021/12/24 09:30:26;;;;;;;24.20;11.60;;;7.10;99.90;;;;;;4996837;28;20026;-92
2021/12/24 09:32:52;;;;;;;23.00;10.30;;;7.10;99.90;;;;;;4995837;28;20033;-92
2021/12/24 09:35:18;;;;;;;46.10;22.98;;;7.10;99.90;;;;;;4995408;28;20034;-91
2021/12/24 09:37:43;;;;;;;54.47;29.83;;;7.10;99.90;;;;;;4996649;28;20030;-91
2021/12/24 09:40:11;;;;;;;30.15;16.88;;;7.10;99.90;;;;;;5012078;28;20029;-91
2021/12/24 09:42:37;;;;;;;26.02;14.50;;;7.20;99.90;;;;;;4997068;28;20038;-92
2021/12/24 09:45:05;;;;;;;30.70;14.23;;;7.20;99.90;;;;;;4995072;28;20117;-92
2021/12/24 09:47:31;;;;;;;27.75;14.77;;;7.20;99.90;;;;;;4976543;28;20112;-91
2021/12/24 09:49:57;;;;;;;39.22;20.92;;;7.20;99.90;;;;;;4976651;28;20172;-93
2021/12/24 09:52:23;;;;;;;40.33;19.27;;;7.30;99.90;;;;;;4976440;28;20019;-92
2021/12/24 09:54:50;;;;;;;49.60;21.63;;;7.30;99.90;;;;;;4976312;28;20041;-92
2021/12/24 09:57:16;;;;;;;45.97;25.77;;;7.40;99.90;;;;;;4976630;28;20030;-91
2021/12/24 09:59:42;;;;;;;37.53;16.95;;;7.40;99.90;;;;;;4973599;28;20077;-91
2021/12/24 10:02:15;;;;;;;38.97;18.73;;;7.50;99.90;;;;;;4992869;28;20027;-91
2021/12/24 10:04:43;;;;;;;33.10;16.95;;;7.50;99.90;;;;;;4976596;28;20045;-91
2021/12/24 10:07:12;;;;;;;31.35;16.00;;;7.60;99.90;;;;;;4973900;28;20038;-91
2021/12/24 10:09:44;;;;;;;33.38;15.27;;;7.60;99.90;;;;;;4983297;28;20137;-91
2021/12/24 10:12:32;;;;;;;33.25;16.58;;;7.60;99.90;;;;;;4971147;28;20049;-91
2021/12/24 10:14:59;;;;;;;33.35;16.23;;;7.70;99.90;;;;;;4975036;28;20026;-93
2021/12/24 10:17:31;;;;;;;37.35;15.23;;;7.80;99.90;;;;;;4995372;28;20034;-93
2021/12/24 10:20:00;;;;;;;28.67;13.82;;;7.80;99.90;;;;;;4989658;28;20030;-93
2021/12/24 10:22:26;;;;;;;30.65;14.27;;;7.90;99.90;;;;;;4980281;28;20038;-92
2021/12/24 10:25:05;;;;;;;30.85;13.32;;;8.10;99.90;;;;;;4974691;28;20023;-91
2021/12/24 10:27:34;;;;;;;24.70;11.65;;;8.50;99.90;;;;;;4978893;28;20086;-93
2021/12/24 10:30:14;;;;;;;25.42;10.75;;;8.90;99.90;;;;;;4980431;28;20494;-91
2021/12/24 10:32:41;;;;;;;18.23;9.10;;;9.40;99.90;;;;;;4997381;28;20084;-91
2021/12/24 10:35:27;;;;;;;19.08;10.07;;;9.80;99.90;;;;;;4997446;28;20030;-91
2021/12/24 10:38:12;;;;;;;18.02;7.78;;;10.20;99.90;;;;;;4994596;28;20034;-93
2021/12/24 10:40:58;;;;;;;15.80;6.78;;;10.50;99.90;;;;;;4979126;28;20095;-93
2021/12/24 10:43:30;;;;;;;20.05;6.25;;;10.60;99.90;;;;;;4980889;28;20034;-94
2021/12/24 10:46:16;;;;;;;18.20;5.88;;;10.90;99.90;;;;;;4979763;28;20070;-93
2021/12/24 10:49:02;;;;;;;15.55;5.43;;;11.20;99.90;;;;;;4992406;28;20038;-92
2021/12/24 10:54:15;;;;;;;17.23;5.00;;;11.50;99.90;;;;;;4996692;28;20092;-94
2021/12/24 10:56:41;;;;;;;21.13;5.88;;;11.50;99.90;;;;;;4993122;28;20423;-92
2021/12/24 10:59:07;;;;;;;14.85;5.38;;;11.40;99.90;;;;;;4995583;28;20030;-93
2021/12/24 11:01:33;;;;;;;16.92;5.40;;;11.20;99.90;;;;;;4995808;28;20026;-90
2021/12/24 11:03:59;;;;;;;22.90;9.80;;;11.00;99.90;;;;;;4990888;28;20042;-92
2021/12/24 11:06:30;;;;;;;19.80;7.63;;;10.80;99.90;;;;;;4988491;28;20078;-92
2021/12/24 11:08:57;;;;;;;11.82;6.38;;;10.60;99.90;;;;;;4989843;28;20038;-93
2021/12/24 11:11:32;;;;;;;26.05;9.13;;;10.30;99.90;;;;;;4995329;28;20120;-93
2021/12/24 11:13:58;;;;;;;20.70;6.60;;;10.20;99.90;;;;;;4989294;28;20435;-93
2021/12/24 11:16:23;;;;;;;23.70;6.25;;;10.00;99.90;;;;;;4979057;28;20022;-93
2021/12/24 11:19:01;;;;;;;16.90;5.30;;;9.90;99.90;;;;;;4979179;28;20034;-94
2021/12/24 11:21:31;;;;;;;15.27;6.03;;;9.70;99.90;;;;;;4978868;28;20031;-92
2021/12/24 11:24:03;;;;;;;15.57;6.60;;;9.70;99.90;;;;;;4980841;28;20038;-93
2021/12/24 11:26:39;;;;;;;20.08;7.97;;;9.60;99.90;;;;;;4990669;28;20080;-93
2021/12/24 11:29:08;;;;;;;13.65;7.78;;;9.40;99.90;;;;;;4978854;28;20022;-93
2021/12/24 11:31:34;;;;;;;16.70;7.95;;;9.30;99.90;;;;;;4979080;28;20026;-93
2021/12/24 11:34:00;;;;;;;19.80;7.80;;;9.20;99.90;;;;;;4978649;28;20026;-93
2021/12/24 11:36:28;;;;;;;16.60;8.52;;;9.10;99.90;;;;;;4994934;28;20038;-92
2021/12/24 11:38:57;;;;;;;12.32;8.85;;;9.10;99.90;;;;;;4978162;28;20031;-92
2021/12/24 11:41:27;;;;;;;13.93;8.05;;;9.00;99.90;;;;;;4978531;28;20117;-93
2021/12/24 11:43:55;;;;;;;17.20;8.02;;;8.90;99.90;;;;;;4978189;28;20046;-92
2021/12/24 11:46:23;;;;;;;13.50;7.40;;;8.80;99.90;;;;;;4978379;28;20057;-92
2021/12/24 11:48:52;;;;;;;10.00;7.22;;;8.80;99.90;;;;;;4979439;28;20069;-95
2021/12/24 11:51:22;;;;;;;12.55;7.95;;;8.70;99.90;;;;;;4979440;28;20026;-94
2021/12/24 11:53:51;;;;;;;9.80;6.80;;;8.60;99.90;;;;;;4978696;28;20547;-92
2021/12/24 11:56:21;;;;;;;10.15;6.50;;;8.60;99.90;;;;;;4975702;28;20027;-91
2021/12/24 11:58:53;;;;;;;9.90;6.00;;;8.50;99.90;;;;;;4984999;28;20034;-93
2021/12/24 12:01:21;;;;;;;8.70;5.32;;;8.50;99.90;;;;;;4997778;28;20491;-94
2021/12/24 12:03:52;;;;;;;8.05;5.53;;;8.40;99.90;;;;;;5006753;28;20045;-93
2021/12/24 12:06:17;;;;;;;8.57;5.45;;;8.30;99.90;;;;;;4991586;28;20042;-92
2021/12/24 12:08:57;;;;;;;9.15;5.70;;;8.30;99.90;;;;;;4991800;28;20044;-92
2021/12/24 12:11:30;;;;;;;10.50;6.00;;;8.20;99.90;;;;;;4984896;28;20037;-92
2021/12/24 12:14:28;;;;;;;11.93;7.20;;;8.10;99.90;;;;;;4981211;28;20022;-93
2021/12/24 12:17:00;;;;;;;14.73;7.53;;;8.10;99.90;;;;;;4979711;28;20060;-94
2021/12/24 12:25:00;;;;;;;12.77;7.70;;;8.00;99.90;;;;;;4996055;28;20046;-93
2021/12/24 12:27:37;;;;;;;15.05;8.23;;;8.00;99.90;;;;;;4985627;28;20055;-93
2021/12/24 12:30:29;;;;;;;17.13;8.57;;;8.00;99.90;;;;;;4986500;28;20034;-92
2021/12/24 12:33:10;;;;;;;17.70;9.52;;;8.00;99.90;;;;;;4991385;28;20075;-93
2021/12/24 12:35:53;;;;;;;17.88;9.40;;;8.00;99.90;;;;;;4978004;28;20014;-93
2021/12/24 12:38:27;;;;;;;14.52;8.77;;;8.00;99.90;;;;;;4987816;28;20030;-92
2021/12/24 12:40:53;;;;;;;16.40;8.60;;;8.10;99.90;;;;;;4980808;28;20042;-93
2021/12/24 12:43:22;;;;;;;16.40;8.88;;;8.10;99.90;;;;;;4978249;28;20033;-93
2021/12/24 12:45:48;;;;;;;17.35;8.80;;;8.00;99.90;;;;;;4994342;28;20151;-95
2021/12/24 12:48:26;;;;;;;17.83;9.02;;;8.10;99.90;;;;;;4971862;28;20105;-93
2021/12/24 12:50:58;;;;;;;15.65;8.60;;;8.00;99.90;;;;;;4976061;28;20113;-92
2021/12/24 12:53:35;;;;;;;19.67;8.85;;;8.10;99.90;;;;;;4976197;28;20022;-92
2021/12/24 12:56:30;;;;;;;15.52;8.45;;;8.10;99.90;;;;;;4970741;28;20411;-95
2021/12/24 12:59:07;;;;;;;15.52;8.65;;;8.00;99.90;;;;;;4983103;28;20022;-95
2021/12/24 13:01:52;;;;;;;16.58;8.45;;;8.00;99.90;;;;;;4984429;28;20046;-93
2021/12/24 13:04:24;;;;;;;16.52;9.05;;;8.00;99.90;;;;;;4987655;28;20046;-95
2021/12/24 13:06:52;;;;;;;13.98;7.28;;;7.90;99.90;;;;;;4999402;28;20098;-94
2021/12/24 13:09:23;;;;;;;15.55;8.27;;;8.00;99.90;;;;;;5004149;28;20041;-93
2021/12/24 13:12:02;;;;;;;14.80;7.57;;;7.90;99.90;;;;;;4993311;28;20018;-95
2021/12/24 13:14:31;;;;;;;12.32;7.13;;;7.90;99.90;;;;;;4979293;28;20034;-95
2021/12/24 13:25:23;;;;;;;12.40;6.30;;;7.90;99.90;;;;;;4992788;28;20046;-94
2021/12/24 13:27:54;;;;;;;13.20;6.88;;;7.80;99.90;;;;;;4980893;28;20110;-93
2021/12/24 13:30:25;;;;;;;11.60;6.82;;;7.80;99.90;;;;;;4978168;28;20061;-94
2021/12/24 13:33:06;;;;;;;11.13;6.35;;;7.80;99.90;;;;;;4978527;28;20050;-93
2021/12/24 13:35:44;;;;;;;12.90;6.57;;;7.90;99.90;;;;;;4978320;28;20030;-92
2021/12/24 13:38:26;;;;;;;13.52;7.00;;;7.80;99.90;;;;;;4975163;28;20056;-96
2021/12/24 13:40:55;;;;;;;11.77;6.07;;;7.80;99.90;;;;;;4987075;28;20037;-93
2021/12/24 13:43:24;;;;;;;10.85;6.22;;;7.80;99.90;;;;;;4997496;28;20744;-93
2021/12/24 13:45:55;;;;;;;12.05;5.57;;;7.80;99.90;;;;;;4993616;28;20082;-92
2021/12/24 13:48:31;;;;;;;9.75;5.63;;;7.80;99.90;;;;;;4986215;28;20031;-94
2021/12/24 13:56:46;;;;;;;10.75;6.38;;;7.80;99.90;;;;;;4999429;28;20506;-92
2021/12/24 13:59:14;;;;;;;10.38;6.10;;;7.80;99.90;;;;;;4981112;28;20479;-94
2021/12/24 14:01:43;;;;;;;11.00;6.68;;;7.70;99.90;;;;;;4980177;28;20034;-91
2021/12/24 14:04:17;;;;;;;12.25;5.93;;;7.70;99.90;;;;;;4980517;28;20137;-93
2021/12/24 14:06:45;;;;;;;12.65;6.95;;;7.70;99.90;;;;;;4997792;28;20018;-91
2021/12/24 14:09:20;;;;;;;10.43;5.85;;;7.70;99.90;;;;;;4999287;28;20023;-92
2021/12/24 14:11:48;;;;;;;10.35;5.97;;;7.70;99.90;;;;;;4999914;28;20100;-91
2021/12/24 14:14:31;;;;;;;11.00;6.60;;;7.60;99.90;;;;;;4996552;28;20464;-92
2021/12/24 14:19:47;;;;;;;12.05;6.47;;;7.60;99.90;;;;;;4996073;28;20049;-93
2021/12/24 14:22:14;;;;;;;11.32;6.25;;;7.60;99.90;;;;;;4978778;28;20061;-92
2021/12/24 14:24:57;;;;;;;11.63;6.72;;;7.50;99.90;;;;;;4980176;28;20045;-91
2021/12/24 14:27:29;;;;;;;11.25;6.55;;;7.50;99.90;;;;;;4980094;28;20030;-92
2021/12/24 14:30:00;;;;;;;13.00;6.85;;;7.50;99.90;;;;;;4980881;28;20507;-92
2021/12/24 14:32:44;;;;;;;11.52;6.38;;;7.50;99.90;;;;;;4972776;28;20035;-92
2021/12/24 14:35:15;;;;;;;13.65;7.13;;;7.50;99.90;;;;;;4962064;28;20062;-92
2021/12/24 14:37:52;;;;;;;12.07;7.63;;;7.50;99.90;;;;;;4970898;28;20058;-90
2021/12/24 14:40:18;;;;;;;9.35;5.82;;;7.40;99.90;;;;;;4980291;28;20149;-92
2021/12/24 14:42:47;;;;;;;9.52;5.28;;;7.50;99.90;;;;;;4980762;28;20056;-91
2021/12/24 14:45:21;;;;;;;10.10;5.38;;;7.50;99.90;;;;;;4979930;28;20030;-92
2021/12/24 14:48:01;;;;;;;9.13;4.82;;;7.40;99.90;;;;;;4980177;28;20018;-91
2021/12/24 14:50:29;;;;;;;9.80;5.13;;;7.40;99.90;;;;;;4979707;28;20026;-91
2021/12/24 14:53:12;;;;;;;9.52;5.43;;;7.40;99.90;;;;;;4980125;28;20053;-90
2021/12/24 14:55:48;;;;;;;8.77;4.60;;;7.40;99.90;;;;;;4981147;28;20030;-91
2021/12/24 14:58:26;;;;;;;10.25;5.13;;;7.30;99.90;;;;;;4980525;28;20149;-91
2021/12/24 15:00:53;;;;;;;8.65;4.40;;;7.30;99.90;;;;;;4978253;28;20030;-92